Time;durP1;ratioP1;P1;durP2;ratioP2;P2;SDS_P1;SDS_P2;PMS_P1;PMS_P2;Temp;Humidity;BMP_temperature;BMP_pressure;BME280_temperature;BME280_humidity;BME280_pressure;Samples;Min_cycle;Max_cycle;Signal;HPM_P1;HPM_P2
2021/07/20 00:01:38;;;;;;;14.38;10.18;;;;;;;22.40;61.35;98838.44;2318701;77;20978;-80
2021/07/20 00:04:39;;;;;;;16.42;11.33;;;;;;;22.55;60.67;98843.24;2318662;77;21314;-79
2021/07/20 00:07:40;;;;;;;12.53;9.70;;;;;;;22.55;60.95;98836.59;2318377;77;20927;-81
2021/07/20 00:10:40;;;;;;;17.73;10.70;;;;;;;22.65;60.56;98833.59;2317932;77;20999;-80
2021/07/20 00:13:41;;;;;;;11.85;9.53;;;;;;;22.42;60.61;98833.07;2318448;77;20976;-80
2021/07/20 00:16:41;;;;;;;13.35;9.73;;;;;;;22.42;60.29;98829.95;2318512;77;20895;-79
2021/07/20 00:19:42;;;;;;;11.50;9.13;;;;;;;22.40;60.76;98831.80;2318316;77;20951;-79
2021/07/20 00:22:42;;;;;;;12.20;9.80;;;;;;;22.54;60.87;98828.20;2318250;77;20907;-80
2021/07/20 00:25:45;;;;;;;28.67;11.48;;;;;;;22.66;60.46;98822.89;2318262;77;20923;-79
2021/07/20 00:28:47;;;;;;;20.45;10.18;;;;;;;22.71;60.49;98822.26;2318360;77;20946;-81
2021/07/20 00:31:47;;;;;;;15.78;9.75;;;;;;;22.80;60.13;98815.29;2318164;77;21030;-79
2021/07/20 00:34:48;;;;;;;10.40;9.13;;;;;;;22.86;60.02;98820.37;2318281;77;20939;-79
2021/07/20 00:37:48;;;;;;;11.43;9.55;;;;;;;22.91;59.64;98818.88;2317858;77;20994;-79
2021/07/20 00:40:49;;;;;;;14.13;9.68;;;;;;;22.97;59.42;98819.96;2318299;77;20977;-79
2021/07/20 00:43:49;;;;;;;12.85;9.50;;;;;;;22.99;59.29;98823.44;2318177;77;20911;-80
2021/07/20 00:46:50;;;;;;;17.05;10.45;;;;;;;23.02;59.21;98825.11;2318164;77;20947;-80
2021/07/20 00:49:50;;;;;;;12.47;10.03;;;;;;;23.07;59.00;98814.69;2317925;77;20962;-80
2021/07/20 00:52:51;;;;;;;11.30;9.58;;;;;;;23.09;58.87;98818.63;2317834;77;20970;-80
2021/07/20 00:55:51;;;;;;;17.70;10.65;;;;;;;22.99;58.75;98810.59;2317306;77;20962;-79
2021/07/20 00:58:52;;;;;;;15.00;11.30;;;;;;;22.93;59.02;98809.50;2317259;77;20954;-78
2021/07/20 01:01:53;;;;;;;18.50;11.20;;;;;;;22.91;59.20;98804.23;2317940;77;20956;-79
2021/07/20 01:04:53;;;;;;;16.00;12.07;;;;;;;22.91;59.06;98802.03;2317830;77;20986;-79
2021/07/20 01:07:54;;;;;;;15.15;11.20;;;;;;;22.93;59.10;98805.50;2317312;77;21023;-78
2021/07/20 01:10:55;;;;;;;15.93;12.43;;;;;;;22.88;59.30;98792.38;2317707;77;20939;-80
2021/07/20 01:13:55;;;;;;;14.38;10.35;;;;;;;22.94;59.03;98798.79;2317798;77;20979;-79
2021/07/20 01:16:56;;;;;;;16.75;11.68;;;;;;;22.79;58.90;98794.89;2317448;77;20884;-79
2021/07/20 01:19:56;;;;;;;15.78;11.95;;;;;;;22.73;59.27;98795.13;2317316;77;21013;-78
2021/07/20 01:22:57;;;;;;;17.40;11.75;;;;;;;22.84;59.05;98796.08;2316779;77;20977;-78
2021/07/20 01:25:57;;;;;;;19.35;12.13;;;;;;;22.81;58.73;98793.07;2316626;77;20966;-79
2021/07/20 01:28:58;;;;;;;18.35;11.95;;;;;;;22.62;59.05;98796.45;2317359;77;20967;-79
2021/07/20 01:32:01;;;;;;;18.73;13.10;;;;;;;22.54;59.21;98800.70;2317309;77;20982;-79
2021/07/20 01:35:01;;;;;;;17.50;13.90;;;;;;;22.57;59.38;98799.30;2317029;77;21387;-78
2021/07/20 01:38:01;;;;;;;21.60;14.00;;;;;;;22.45;58.88;98806.36;2317111;77;20994;-80
2021/07/20 01:41:06;;;;;;;22.55;14.73;;;;;;;21.75;59.05;98804.37;2317374;77;20942;-79
2021/07/20 01:44:04;;;;;;;18.23;13.30;;;;;;;21.51;60.33;98805.16;2316979;77;20959;-79
2021/07/20 01:47:05;;;;;;;20.48;13.03;;;;;;;20.88;60.70;98807.11;2317058;77;20924;-80
2021/07/20 01:50:06;;;;;;;25.32;13.28;;;;;;;20.38;61.46;98806.34;2317103;77;20947;-81
2021/07/20 01:53:06;;;;;;;25.40;14.20;;;;;;;19.97;62.75;98805.23;2317240;77;20970;-80
2021/07/20 01:56:07;;;;;;;18.50;12.98;;;;;;;19.55;63.56;98806.31;2316788;77;20989;-80
2021/07/20 01:59:07;;;;;;;20.90;13.98;;;;;;;19.29;64.53;98804.27;2317102;77;20971;-79
2021/07/20 02:02:28;;;;;;;21.70;14.03;;;;;;;19.03;65.56;98805.71;2316957;77;20939;-79
2021/07/20 02:08:39;;;;;;;22.60;14.25;;;;;;;18.72;66.35;98804.65;2310541;77;20997;-79
2021/07/20 02:11:40;;;;;;;21.17;14.75;;;;;;;18.65;66.71;98810.52;2290379;78;20936;-79
2021/07/20 02:14:41;;;;;;;23.45;13.98;;;;;;;18.46;67.31;98810.00;2291405;78;20966;-79
2021/07/20 02:17:42;;;;;;;24.72;14.55;;;;;;;18.46;67.31;98810.00;2291206;78;21372;-80
2021/07/20 02:20:43;;;;;;;25.02;14.93;;;;;;;18.39;67.88;98805.73;2291363;78;20963;-80
2021/07/20 02:23:43;;;;;;;20.95;14.05;;;;;;;18.29;67.87;98805.50;2290931;78;20932;-80
2021/07/20 02:26:44;;;;;;;21.68;14.40;;;;;;;18.21;68.25;98803.46;2291319;78;21292;-79
2021/07/20 02:29:44;;;;;;;27.62;15.18;;;;;;;18.09;68.44;98798.38;2291797;78;21025;-80
2021/07/20 02:32:45;;;;;;;21.80;14.05;;;;;;;18.02;68.80;98804.23;2291440;78;20942;-79
2021/07/20 02:35:45;;;;;;;23.12;14.33;;;;;;;17.96;68.92;98799.06;2291464;78;20944;-79
2021/07/20 02:38:46;;;;;;;17.98;14.30;;;;;;;17.95;69.18;98798.64;2291486;78;21029;-81
2021/07/20 02:41:46;;;;;;;20.62;13.80;;;;;;;17.97;69.52;98801.25;2292334;78;20961;-81
2021/07/20 02:44:47;;;;;;;22.00;14.18;;;;;;;17.95;69.44;98809.20;2283013;78;20981;-79
2021/07/20 02:47:48;;;;;;;21.27;14.45;;;;;;;17.90;69.62;98811.51;2281048;78;20982;-80
2021/07/20 02:50:48;;;;;;;22.90;15.18;;;;;;;17.87;69.49;98811.12;2281530;78;20906;-79
2021/07/20 02:53:49;;;;;;;21.80;14.65;;;;;;;17.84;69.58;98813.81;2281497;78;20985;-79
2021/07/20 02:56:49;;;;;;;26.02;14.20;;;;;;;17.81;69.55;98821.34;2281234;78;20953;-81
2021/07/20 02:59:50;;;;;;;21.12;14.45;;;;;;;17.81;69.70;98828.39;2281339;78;20966;-80
2021/07/20 03:02:50;;;;;;;22.48;14.55;;;;;;;17.74;69.98;98831.58;2281258;78;21338;-77
2021/07/20 03:05:51;;;;;;;28.80;15.60;;;;;;;17.72;70.19;98836.47;2280987;78;21396;-78
2021/07/20 03:08:55;;;;;;;26.27;16.50;;;;;;;17.75;70.79;98839.05;2280868;78;21002;-78
2021/07/20 03:11:53;;;;;;;22.17;16.23;;;;;;;17.89;70.38;98843.64;2280165;78;20970;-78
2021/07/20 03:14:54;;;;;;;25.70;17.10;;;;;;;17.91;70.44;98847.13;2281230;78;20938;-78
2021/07/20 03:17:54;;;;;;;26.45;16.27;;;;;;;17.79;70.40;98851.30;2281092;78;20949;-78
2021/07/20 03:20:55;;;;;;;22.62;16.17;;;;;;;17.63;71.29;98845.38;2280990;78;20954;-78
2021/07/20 03:23:55;;;;;;;21.45;15.55;;;;;;;17.97;70.83;98840.88;2280633;78;20947;-78
2021/07/20 03:26:56;;;;;;;21.50;14.50;;;;;;;18.16;70.83;98840.95;2280833;78;20978;-78
2021/07/20 03:29:56;;;;;;;21.00;15.03;;;;;;;18.46;70.47;98850.97;2281098;78;21001;-79
2021/07/20 03:32:57;;;;;;;26.05;15.25;;;;;;;18.65;70.42;98841.38;2281120;78;20938;-79
2021/07/20 03:35:57;;;;;;;17.73;15.50;;;;;;;19.17;69.37;98839.82;2280634;78;21596;-78
2021/07/20 03:38:58;;;;;;;30.23;14.20;;;;;;;19.59;67.99;98841.06;2282402;78;21034;-79
2021/07/20 03:41:59;;;;;;;20.50;14.07;;;;;;;19.77;66.89;98842.39;2290824;78;20900;-78
2021/07/20 03:44:59;;;;;;;20.02;14.75;;;;;;;20.04;66.41;98844.36;2290762;78;20900;-78
2021/07/20 03:48:02;;;;;;;27.20;15.38;;;;;;;20.16;65.02;98843.16;2290908;78;20956;-78
2021/07/20 03:51:02;;;;;;;18.92;13.98;;;;;;;20.00;65.10;98844.89;2290712;78;20998;-78
2021/07/20 03:54:05;;;;;;;22.50;14.13;;;;;;;20.06;65.10;98849.62;2290753;78;20987;-77
2021/07/20 03:57:05;;;;;;;25.80;15.90;;;;;;;20.10;64.82;98851.28;2290603;78;20948;-79
2021/07/20 04:00:06;;;;;;;20.48;14.50;;;;;;;20.21;64.26;98854.51;2290518;78;20996;-79
2021/07/20 04:03:22;;;;;;;25.43;14.98;;;;;;;20.19;64.19;98857.66;2290776;78;20912;-77
2021/07/20 04:06:22;;;;;;;24.67;15.28;;;;;;;19.96;64.24;98860.91;2290219;78;20963;-79
2021/07/20 04:09:23;;;;;;;24.35;15.45;;;;;;;19.98;64.14;98865.71;2289904;78;20956;-78
2021/07/20 04:12:23;;;;;;;25.52;15.25;;;;;;;19.36;64.59;98870.70;2290206;78;20967;-78
2021/07/20 04:15:23;;;;;;;23.77;15.65;;;;;;;18.85;65.77;98870.05;2290607;78;20940;-77
2021/07/20 04:18:24;;;;;;;19.02;15.30;;;;;;;18.52;66.55;98876.86;2290560;78;21343;-78
2021/07/20 04:21:25;;;;;;;24.35;15.00;;;;;;;18.37;67.37;98874.93;2290202;78;20967;-78
2021/07/20 04:24:25;;;;;;;24.65;15.53;;;;;;;18.37;68.99;98873.61;2290688;78;20905;-78
2021/07/20 04:27:26;;;;;;;21.97;15.58;;;;;;;18.84;67.32;98874.46;2290658;78;20951;-78
2021/07/20 04:30:27;;;;;;;25.08;15.60;;;;;;;18.66;67.30;98871.75;2290447;78;20948;-78
2021/07/20 04:33:27;;;;;;;19.60;14.30;;;;;;;18.60;67.63;98874.93;2290594;78;20904;-78
2021/07/20 04:36:30;;;;;;;25.68;15.90;;;;;;;18.49;67.96;98875.14;2290816;78;21273;-78
2021/07/20 04:39:31;;;;;;;28.80;15.57;;;;;;;18.46;67.75;98884.45;2287797;78;21313;-78
2021/07/20 04:42:31;;;;;;;39.05;17.30;;;;;;;18.45;69.38;98879.62;2281000;78;20985;-78
2021/07/20 04:45:32;;;;;;;30.90;17.32;;;;;;;18.89;67.63;98873.05;2280697;78;20926;-77
2021/07/20 04:48:32;;;;;;;31.40;17.48;;;;;;;18.83;68.16;98873.17;2280772;78;20941;-78
2021/07/20 04:51:33;;;;;;;27.17;15.20;;;;;;;19.16;67.20;98872.93;2280070;78;20962;-78
2021/07/20 04:54:33;;;;;;;21.17;14.63;;;;;;;19.63;67.44;98868.76;2279838;78;21321;-78
2021/07/20 04:57:34;;;;;;;23.62;14.35;;;;;;;19.63;67.44;98868.76;2279391;78;20961;-79
2021/07/20 05:00:34;;;;;;;26.00;14.45;;;;;;;20.04;66.19;98869.53;2279297;78;20997;-78
2021/07/20 05:03:35;;;;;;;22.80;14.45;;;;;;;20.17;66.01;98863.45;2280081;78;21349;-78
2021/07/20 05:06:36;;;;;;;20.62;15.35;;;;;;;20.25;63.62;98864.98;2280195;78;20993;-77
2021/07/20 05:09:36;;;;;;;26.30;16.32;;;;;;;20.25;63.62;98864.98;2280800;78;20998;-79
2021/07/20 05:12:37;;;;;;;23.95;15.25;;;;;;;19.77;63.54;98864.90;2281016;78;20965;-81
2021/07/20 05:15:38;;;;;;;21.45;15.63;;;;;;;19.40;64.01;98869.27;2281074;78;20942;-78
2021/07/20 05:18:40;;;;;;;25.15;15.72;;;;;;;19.46;65.88;98876.20;2280744;78;21084;-79
2021/07/20 05:21:40;;;;;;;21.57;15.30;;;;;;;19.41;64.58;98879.41;2280178;78;20945;-78
2021/07/20 05:24:41;;;;;;;20.23;15.28;;;;;;;19.40;64.57;98875.89;2280265;78;21009;-77
2021/07/20 05:27:41;;;;;;;21.50;14.55;;;;;;;19.50;65.23;98869.92;2280738;78;20942;-79
2021/07/20 05:30:45;;;;;;;18.95;14.33;;;;;;;20.02;66.76;98868.70;2280806;78;21037;-78
2021/07/20 05:33:46;;;;;;;19.05;14.50;;;;;;;20.57;64.54;98866.79;2280645;78;21426;-77
2021/07/20 05:36:46;;;;;;;21.33;14.63;;;;;;;20.73;64.88;98873.85;2280291;78;20910;-78
2021/07/20 05:39:47;;;;;;;17.70;13.10;;;;;;;21.24;63.01;98874.16;2272164;78;21418;-78
2021/07/20 05:42:48;;;;;;;23.02;14.07;;;;;;;20.91;62.55;98872.48;2248623;79;20912;-77
2021/07/20 05:45:49;;;;;;;21.55;14.47;;;;;;;21.16;62.67;98872.62;2248592;79;21007;-78
2021/07/20 05:48:50;;;;;;;24.80;14.47;;;;;;;20.76;60.56;98880.39;2248136;78;21399;-77
2021/07/20 05:51:51;;;;;;;24.02;16.02;;;;;;;20.32;61.58;98871.86;2248419;79;20974;-78
2021/07/20 05:54:51;;;;;;;25.05;15.45;;;;;;;19.92;62.20;98867.16;2248284;78;20923;-78
2021/07/20 05:57:52;;;;;;;20.20;14.87;;;;;;;19.65;62.97;98869.59;2248259;79;21440;-78
2021/07/20 06:00:52;;;;;;;31.82;14.35;;;;;;;19.54;63.29;98869.44;2248564;78;20987;-78
2021/07/20 06:03:54;;;;;;;21.82;14.45;;;;;;;19.46;63.60;98870.91;2248050;79;21314;-79
2021/07/20 06:06:54;;;;;;;17.00;13.20;;;;;;;19.57;63.70;98874.66;2247688;79;20939;-78
2021/07/20 06:09:55;;;;;;;21.45;14.00;;;;;;;19.76;62.83;98878.59;2248493;79;21035;-78
2021/07/20 06:12:58;;;;;;;21.40;14.13;;;;;;;19.79;63.25;98880.30;2248600;79;20951;-78
2021/07/20 06:15:59;;;;;;;22.40;14.35;;;;;;;19.83;63.32;98880.64;2248479;78;20970;-78
2021/07/20 06:18:59;;;;;;;21.85;13.72;;;;;;;19.99;64.17;98882.02;2248640;78;21018;-79
2021/07/20 06:22:00;;;;;;;18.62;12.63;;;;;;;20.14;62.54;98891.36;2247831;79;20956;-78
2021/07/20 06:25:00;;;;;;;27.25;14.30;;;;;;;20.25;61.44;98898.12;2247943;78;20935;-78
2021/07/20 06:28:01;;;;;;;20.12;12.37;;;;;;;20.49;63.50;98895.76;2248402;79;20996;-78
2021/07/20 06:31:01;;;;;;;24.45;12.75;;;;;;;20.49;63.50;98895.76;2248641;78;20992;-79
2021/07/20 06:34:02;;;;;;;20.88;13.38;;;;;;;20.88;61.96;98901.30;2248530;78;20916;-79
2021/07/20 06:37:03;;;;;;;18.80;14.07;;;;;;;21.08;59.71;98906.02;2248383;79;21243;-78
2021/07/20 06:40:03;;;;;;;21.15;13.95;;;;;;;20.84;59.34;98904.95;2256602;77;21020;-78
2021/07/20 06:43:05;;;;;;;21.80;13.40;;;;;;;20.70;59.89;98903.12;2280688;78;21005;-78
2021/07/20 06:46:08;;;;;;;20.37;13.85;;;;;;;20.61;59.82;98899.39;2280368;78;21000;-78
2021/07/20 06:49:09;;;;;;;18.05;13.58;;;;;;;20.56;60.26;98894.22;2280702;78;20953;-78
2021/07/20 06:52:09;;;;;;;18.27;13.72;;;;;;;20.82;60.58;98898.83;2280497;78;20993;-78
2021/07/20 06:55:10;;;;;;;19.60;12.58;;;;;;;20.83;59.42;98895.71;2280357;78;20985;-78
2021/07/20 06:58:11;;;;;;;25.20;13.60;;;;;;;20.95;61.52;98894.03;2280690;78;21001;-77
2021/07/20 07:01:12;;;;;;;19.85;13.75;;;;;;;21.30;58.86;98894.34;2280238;78;20966;-78
2021/07/20 07:04:13;;;;;;;21.12;12.53;;;;;;;21.32;57.51;98898.27;2280672;78;21020;-79
2021/07/20 07:07:15;;;;;;;16.48;12.37;;;;;;;21.17;57.04;98899.57;2280893;78;21293;-78
2021/07/20 07:10:17;;;;;;;20.70;12.03;;;;;;;21.25;57.30;98900.24;2280444;78;21013;-80
2021/07/20 07:13:18;;;;;;;18.07;11.45;;;;;;;21.58;56.72;98903.18;2280837;78;20973;-77
2021/07/20 07:16:21;;;;;;;18.87;11.55;;;;;;;22.03;56.58;98900.00;2280936;78;20945;-78
2021/07/20 07:19:21;;;;;;;17.73;11.77;;;;;;;22.20;56.60;98903.42;2280908;78;20981;-77
2021/07/20 07:22:22;;;;;;;18.23;13.43;;;;;;;22.67;54.54;98905.77;2280189;78;21350;-78
2021/07/20 07:25:23;;;;;;;22.40;12.70;;;;;;;22.55;53.90;98907.55;2280545;78;20938;-79
2021/07/20 07:28:24;;;;;;;19.92;12.00;;;;;;;22.23;53.87;98907.30;2281012;78;20949;-78
2021/07/20 07:31:27;;;;;;;20.40;11.18;;;;;;;22.40;53.92;98908.05;2280647;78;20962;-78
2021/07/20 07:34:27;;;;;;;15.40;11.50;;;;;;;22.19;53.75;98905.21;2280849;78;20953;-78
2021/07/20 07:37:28;;;;;;;17.02;10.88;;;;;;;22.59;55.73;98906.97;2280497;78;21290;-78
2021/07/20 07:40:29;;;;;;;22.32;11.03;;;;;;;23.31;55.30;98902.53;2279835;77;21405;-78
2021/07/20 07:43:30;;;;;;;18.85;10.98;;;;;;;23.96;52.98;98898.61;2279810;78;20953;-79
2021/07/20 07:46:30;;;;;;;16.90;11.75;;;;;;;23.90;50.15;98894.87;2279960;78;20958;-79
2021/07/20 07:49:31;;;;;;;12.90;11.03;;;;;;;23.19;50.28;98896.75;2279995;78;20980;-79
2021/07/20 07:52:32;;;;;;;18.42;13.28;;;;;;;23.27;50.72;98895.12;2279721;78;20977;-78
2021/07/20 07:55:32;;;;;;;14.68;10.50;;;;;;;23.06;49.86;98899.47;2280086;78;20934;-78
2021/07/20 07:58:36;;;;;;;13.93;9.55;;;;;;;23.23;50.46;98898.83;2279049;78;20957;-80
2021/07/20 08:01:36;;;;;;;15.70;9.93;;;;;;;23.46;51.42;98906.83;2280974;78;20994;-79
2021/07/20 08:04:37;;;;;;;9.73;8.50;;;;;;;24.48;50.63;98905.80;2280733;77;20934;-77
2021/07/20 08:07:39;;;;;;;14.90;9.23;;;;;;;24.81;46.37;98907.91;2280915;77;21328;-81
2021/07/20 08:10:39;;;;;;;15.43;8.95;;;;;;;24.94;48.85;98905.09;2280807;77;20969;-78
2021/07/20 08:13:40;;;;;;;14.15;9.50;;;;;;;25.17;46.45;98907.62;2280872;78;21307;-78
2021/07/20 08:16:41;;;;;;;13.13;9.05;;;;;;;25.00;48.30;98907.51;2281143;77;21353;-78
2021/07/20 08:19:41;;;;;;;52.55;12.80;;;;;;;25.46;47.37;98909.41;2280984;77;20992;-77
2021/07/20 08:22:42;;;;;;;14.47;10.05;;;;;;;25.74;46.86;98904.97;2280939;78;21334;-79
2021/07/20 08:25:42;;;;;;;11.78;8.73;;;;;;;25.73;45.04;98902.77;2281091;78;21310;-79
2021/07/20 08:28:43;;;;;;;14.00;8.78;;;;;;;25.41;45.56;98905.61;2280961;77;20953;-78
2021/07/20 08:31:43;;;;;;;18.42;9.45;;;;;;;24.78;44.31;98908.45;2281057;77;20938;-80
2021/07/20 08:34:44;;;;;;;9.40;8.18;;;;;;;24.86;45.31;98904.56;2280790;77;20957;-79
2021/07/20 08:37:44;;;;;;;12.75;8.95;;;;;;;24.87;45.71;98899.62;2281147;77;20930;-79
2021/07/20 08:40:45;;;;;;;14.75;8.45;;;;;;;25.10;46.42;98895.47;2283882;77;21367;-78
2021/07/20 08:43:45;;;;;;;12.50;9.15;;;;;;;25.28;46.54;98898.65;2290938;78;21318;-81
2021/07/20 08:46:46;;;;;;;10.38;8.63;;;;;;;25.67;44.55;98896.37;2290803;78;20920;-78
2021/07/20 08:49:46;;;;;;;9.63;7.75;;;;;;;25.44;43.63;98897.92;2290521;78;20956;-78
2021/07/20 08:52:47;;;;;;;13.40;8.03;;;;;;;24.92;43.39;98898.48;2290821;78;20971;-78
2021/07/20 08:55:49;;;;;;;23.47;9.03;;;;;;;24.62;43.49;98899.86;2290568;78;20991;-78
2021/07/20 08:58:50;;;;;;;9.33;7.92;;;;;;;24.63;44.54;98894.45;2290665;78;20983;-78
2021/07/20 09:01:52;;;;;;;13.75;7.85;;;;;;;24.99;45.64;98897.77;2290452;78;20978;-79
2021/07/20 09:04:53;;;;;;;9.13;7.10;;;;;;;25.69;44.41;98887.34;2290728;78;21351;-78
2021/07/20 09:07:53;;;;;;;9.10;6.42;;;;;;;25.82;41.58;98890.28;2290492;78;20952;-78
2021/07/20 09:10:54;;;;;;;9.80;6.65;;;;;;;25.66;41.51;98892.84;2290527;78;21018;-78
2021/07/20 09:13:57;;;;;;;11.20;6.75;;;;;;;25.69;41.12;98891.82;2290685;78;21320;-79
2021/07/20 09:16:58;;;;;;;11.33;6.80;;;;;;;25.42;40.46;98886.44;2290628;78;21019;-77
2021/07/20 09:19:58;;;;;;;8.30;7.28;;;;;;;25.32;40.77;98895.36;2290065;78;20984;-78
2021/07/20 09:22:59;;;;;;;7.45;6.40;;;;;;;25.40;43.71;98895.39;2289698;78;20920;-80
2021/07/20 09:25:59;;;;;;;7.33;6.33;;;;;;;26.11;41.07;98894.20;2289765;78;21264;-78
2021/07/20 09:29:00;;;;;;;7.75;6.85;;;;;;;25.92;37.73;98891.55;2290261;78;20920;-79
2021/07/20 09:32:00;;;;;;;7.30;6.28;;;;;;;25.42;38.13;98889.11;2290339;78;20936;-79
2021/07/20 09:35:01;;;;;;;8.45;6.47;;;;;;;25.22;39.63;98890.92;2290659;77;20920;-78
2021/07/20 09:38:04;;;;;;;8.73;7.05;;;;;;;25.04;39.28;98888.61;2290586;78;20989;-79
2021/07/20 09:41:05;;;;;;;8.70;7.12;;;;;;;25.12;40.94;98886.91;2275499;77;21407;-79
2021/07/20 09:44:05;;;;;;;11.30;6.72;;;;;;;25.78;40.18;98887.36;2248611;78;21354;-78
2021/07/20 09:47:06;;;;;;;8.40;6.67;;;;;;;25.78;40.00;98890.03;2247843;78;20954;-78
2021/07/20 09:50:08;;;;;;;9.60;7.22;;;;;;;25.45;39.42;98887.63;2248616;79;21336;-78
2021/07/20 09:53:08;;;;;;;8.65;7.15;;;;;;;24.98;41.64;98884.88;2248686;79;21039;-78
2021/07/20 09:56:09;;;;;;;8.83;7.00;;;;;;;25.46;40.55;98882.68;2248992;79;21320;-79
2021/07/20 09:59:15;;;;;;;9.23;6.80;;;;;;;25.64;40.25;98877.78;2226070;79;20970;-78
2021/07/20 10:02:15;;;;;;;10.70;7.10;;;;;;;25.43;38.25;98881.49;2248198;78;20972;-78
2021/07/20 10:05:16;;;;;;;11.35;7.17;;;;;;;25.37;38.67;98875.50;2248581;79;20990;-78
2021/07/20 10:08:19;;;;;;;8.90;6.97;;;;;;;25.26;39.23;98869.80;2248194;78;20939;-79
2021/07/20 10:11:19;;;;;;;8.48;6.95;;;;;;;25.06;38.87;98869.38;2248526;79;20959;-77
2021/07/20 10:14:26;;;;;;;7.92;6.78;;;;;;;25.02;39.78;98868.25;2248502;78;20932;-78
2021/07/20 10:17:27;;;;;;;8.90;6.20;;;;;;;24.97;40.12;98859.11;2248473;78;20955;-79
2021/07/20 10:20:27;;;;;;;13.45;7.22;;;;;;;24.83;40.89;98860.66;2248481;78;20995;-79
2021/07/20 10:23:28;;;;;;;11.38;7.58;;;;;;;24.38;40.77;98864.45;2248430;78;20928;-78
2021/07/20 10:26:30;;;;;;;18.85;7.25;;;;;;;23.90;40.65;98860.22;2247470;79;20958;-79
2021/07/20 10:29:30;;;;;;;26.23;7.75;;;;;;;23.50;41.72;98853.83;2247481;79;21015;-79
2021/07/20 10:32:31;;;;;;;19.82;7.80;;;;;;;23.64;44.23;98855.09;2247643;78;20971;-81
2021/07/20 10:35:31;;;;;;;10.35;8.00;;;;;;;23.83;44.85;98850.73;2247674;78;20971;-80
2021/07/20 10:38:32;;;;;;;9.23;6.95;;;;;;;24.22;44.38;98852.17;2247147;78;21003;-79
2021/07/20 10:41:32;;;;;;;14.87;9.45;;;;;;;24.37;44.14;98848.04;2248280;77;21063;-79
2021/07/20 10:44:33;;;;;;;7.87;7.15;;;;;;;24.30;43.48;98847.44;2248629;78;20975;-78
2021/07/20 10:47:33;;;;;;;8.75;7.85;;;;;;;24.41;42.96;98849.64;2248470;79;20987;-78
2021/07/20 10:50:34;;;;;;;13.18;7.83;;;;;;;24.53;43.57;98846.42;2248541;78;21344;-78
2021/07/20 10:53:34;;;;;;;12.05;7.53;;;;;;;25.09;42.40;98850.53;2248036;78;20921;-78
2021/07/20 10:56:39;;;;;;;16.55;8.10;;;;;;;25.47;40.60;98842.99;2248513;78;20948;-80
2021/07/20 10:59:40;;;;;;;11.88;7.22;;;;;;;26.12;39.82;98837.56;2248306;77;21035;-79
2021/07/20 11:02:40;;;;;;;20.75;7.53;;;;;;;26.13;40.41;98832.12;2248525;79;21012;-77
2021/07/20 11:05:42;;;;;;;8.75;7.37;;;;;;;26.47;38.21;98834.41;2248316;78;20953;-80
2021/07/20 11:08:44;;;;;;;10.60;7.00;;;;;;;25.83;38.18;98833.19;2248672;79;21340;-79
2021/07/20 11:11:45;;;;;;;9.20;6.85;;;;;;;25.37;39.15;98823.40;2248399;79;21447;-78
2021/07/20 11:14:45;;;;;;;9.90;7.03;;;;;;;25.31;41.45;98825.50;2247713;78;21018;-79
2021/07/20 11:17:47;;;;;;;7.90;6.92;;;;;;;25.62;42.07;98830.22;2247533;78;20957;-79
2021/07/20 11:20:49;;;;;;;7.95;7.20;;;;;;;25.45;40.00;98832.38;2248221;79;20999;-78
2021/07/20 11:23:49;;;;;;;11.55;7.28;;;;;;;24.84;40.58;98833.89;2247558;79;20975;-79
2021/07/20 11:26:50;;;;;;;12.10;7.85;;;;;;;24.42;42.14;98837.56;2248046;79;20947;-79
2021/07/20 11:29:50;;;;;;;10.80;8.33;;;;;;;24.04;43.09;98834.30;2248857;78;20944;-78
2021/07/20 11:32:57;;;;;;;12.15;8.38;;;;;;;23.90;43.72;98831.36;2248902;79;20923;-80
2021/07/20 11:35:56;;;;;;;17.87;8.03;;;;;;;24.25;44.64;98825.38;2248175;78;20968;-81
2021/07/20 11:38:56;;;;;;;15.35;8.30;;;;;;;24.40;45.10;98842.10;2247867;78;21395;-82
2021/07/20 11:41:57;;;;;;;14.25;8.13;;;;;;;24.64;43.61;98838.80;2262375;77;20977;-80
2021/07/20 11:44:57;;;;;;;14.93;7.47;;;;;;;24.97;42.53;98838.19;2280245;77;20965;-80
2021/07/20 11:47:58;;;;;;;9.80;6.92;;;;;;;24.96;42.25;98833.78;2279777;78;20973;-80
2021/07/20 11:51:00;;;;;;;10.03;7.08;;;;;;;24.84;41.48;98832.55;2280616;78;20965;-80
2021/07/20 11:54:01;;;;;;;8.05;7.10;;;;;;;25.03;41.51;98832.12;2280153;78;20923;-84
2021/07/20 11:57:01;;;;;;;13.38;7.33;;;;;;;25.08;41.77;98828.77;2281268;78;21311;-81
2021/07/20 12:00:02;;;;;;;8.90;7.55;;;;;;;25.11;41.99;98827.76;2280636;77;21370;-81
2021/07/20 12:03:02;;;;;;;42.33;9.38;;;;;;;25.42;42.43;98826.31;2280662;77;20922;-80
2021/07/20 12:06:03;;;;;;;11.90;6.30;;;;;;;25.66;41.46;98829.16;2279900;77;20938;-80
2021/07/20 12:09:03;;;;;;;10.23;7.03;;;;;;;25.69;40.49;98823.19;2280215;77;21342;-82
2021/07/20 12:12:04;;;;;;;10.68;6.50;;;;;;;25.48;40.91;98824.69;2280491;78;21009;-78
2021/07/20 12:15:04;;;;;;;7.10;6.40;;;;;;;25.56;41.62;98823.84;2280754;77;20969;-81
2021/07/20 12:18:05;;;;;;;9.95;7.03;;;;;;;25.59;40.96;98822.34;2280570;78;21287;-81
2021/07/20 12:21:05;;;;;;;9.90;7.08;;;;;;;25.52;41.20;98818.25;2280828;77;20986;-80
2021/07/20 12:24:06;;;;;;;16.65;7.45;;;;;;;25.56;41.85;98816.69;2281008;78;20950;-80
2021/07/20 12:27:07;;;;;;;10.93;6.42;;;;;;;25.63;41.57;98819.92;2279649;78;20966;-81
2021/07/20 12:30:07;;;;;;;8.93;6.58;;;;;;;25.29;41.36;98820.70;2280339;77;20930;-80
2021/07/20 12:33:08;;;;;;;9.45;6.08;;;;;;;25.45;42.38;98822.16;2280646;77;20965;-81
2021/07/20 12:36:09;;;;;;;10.50;6.45;;;;;;;25.67;41.82;98825.06;2280637;77;20938;-80
2021/07/20 12:39:09;;;;;;;12.78;6.22;;;;;;;25.83;41.84;98821.63;2280859;78;20938;-82
2021/07/20 12:42:10;;;;;;;7.85;6.20;;;;;;;25.96;41.83;98818.25;2265590;77;21026;-80
2021/07/20 12:45:11;;;;;;;6.78;5.92;;;;;;;26.01;41.46;98818.05;2248013;79;20924;-81
2021/07/20 12:48:11;;;;;;;9.80;6.10;;;;;;;26.15;41.32;98816.00;2248344;78;21351;-81
2021/07/20 12:51:15;;;;;;;7.33;6.05;;;;;;;26.26;41.10;98809.62;2248486;78;20933;-81
2021/07/20 12:54:16;;;;;;;8.18;5.70;;;;;;;26.36;41.03;98809.56;2248774;79;20996;-80
2021/07/20 12:57:16;;;;;;;9.70;6.80;;;;;;;26.45;40.62;98813.09;2247723;79;21301;-80
2021/07/20 13:00:17;;;;;;;7.47;6.05;;;;;;;26.56;40.17;98806.69;2247550;78;20960;-80
2021/07/20 13:03:18;;;;;;;10.58;6.25;;;;;;;26.52;39.74;98805.59;2248174;78;21027;-81
2021/07/20 13:06:19;;;;;;;13.40;6.85;;;;;;;26.34;39.37;98804.29;2247823;79;21780;-80
2021/07/20 13:09:19;;;;;;;13.20;6.75;;;;;;;26.26;39.84;98809.62;2248396;78;21482;-80
2021/07/20 13:12:20;;;;;;;9.10;6.25;;;;;;;26.36;39.72;98807.36;2248559;78;21003;-81
2021/07/20 13:15:21;;;;;;;8.35;5.87;;;;;;;26.48;39.10;98808.04;2248088;79;21061;-79
2021/07/20 13:18:22;;;;;;;8.70;6.15;;;;;;;26.44;39.13;98805.14;2248640;78;21388;-80
2021/07/20 13:21:23;;;;;;;7.50;5.72;;;;;;;26.40;39.32;98800.42;2248145;78;20991;-82
2021/07/20 13:24:23;;;;;;;7.65;5.80;;;;;;;26.38;39.52;98798.77;2247725;78;21011;-82
2021/07/20 13:27:24;;;;;;;9.08;6.17;;;;;;;26.35;40.08;98797.13;2248502;78;21327;-80
2021/07/20 13:30:24;;;;;;;8.98;6.50;;;;;;;26.32;40.48;98796.81;2248483;78;20940;-82
2021/07/20 13:33:25;;;;;;;7.40;6.10;;;;;;;26.36;40.66;98793.50;2248240;79;20960;-80
2021/07/20 13:36:25;;;;;;;7.58;6.12;;;;;;;26.36;41.02;98793.97;2248130;78;20990;-81
2021/07/20 13:39:26;;;;;;;9.10;6.28;;;;;;;26.56;40.81;98792.44;2248840;78;21003;-80
2021/07/20 13:42:26;;;;;;;6.35;5.75;;;;;;;26.78;40.31;98788.12;2262764;77;21048;-80
2021/07/20 13:45:27;;;;;;;6.12;5.42;;;;;;;26.91;39.76;98791.41;2280587;77;21330;-82
2021/07/20 13:48:27;;;;;;;7.05;5.70;;;;;;;27.18;39.12;98787.69;2280496;78;20962;-80
2021/07/20 13:51:28;;;;;;;6.65;5.80;;;;;;;27.46;37.38;98788.79;2280875;77;20918;-81
2021/07/20 13:54:28;;;;;;;9.68;5.35;;;;;;;27.69;37.14;98785.66;2280622;77;20949;-80
2021/07/20 13:57:29;;;;;;;7.45;5.58;;;;;;;27.60;36.00;98792.88;2280771;77;20962;-80
2021/07/20 14:00:30;;;;;;;6.72;5.17;;;;;;;27.61;34.63;98789.27;2281057;77;21009;-81